< < Back
Terminal Aerodrome Forecast


Current Version              Previous Versions:   1  2  3  4  5  6  7  8  9  

Terminal Aerodrome Forecast

924
FTUS42 KFFC 072131 AAA
TAFATL
TAF AMD
KATL 072131Z 0722/0824 27008KT P6SM FEW050 SCT250
     FM080200 26005KT P6SM FEW150
     FM080500 28003KT P6SM SKC
     FM081600 27007KT P6SM SCT050
     FM082300 24005KT P6SM FEW150=

Latest METAR

632
SAUS70 KWBC 080000 RRJ
MTRATL
METAR KATL 072352Z 23007KT 10SM BKN250 29/21 A3013 RMK AO2 SLP190
T02940206 10322 20294 55002


USA.gov is the U.S. government's official web portal to all federal, state and local government web resources and services.